sensor_id;sensor_type;location;lat;lon;timestamp;pressure;altitude;pressure_sealevel;temperature;humidity
72359;BME280;60317;48.880;-0.862;2023-03-24T00:01:45;98944.22;;;19.02;50.52
72359;BME280;60317;48.880;-0.862;2023-03-24T00:04:12;98946.91;;;19.02;50.55
72359;BME280;60317;48.880;-0.862;2023-03-24T00:06:38;98957.94;;;18.99;50.62
72359;BME280;60317;48.880;-0.862;2023-03-24T00:09:05;98955.25;;;18.99;50.51
72359;BME280;60317;48.880;-0.862;2023-03-24T00:11:32;98953.56;;;18.98;50.56
72359;BME280;60317;48.880;-0.862;2023-03-24T00:13:58;98957.75;;;19.01;50.44
72359;BME280;60317;48.880;-0.862;2023-03-24T00:16:26;98955.78;;;19.03;50.33
72359;BME280;60317;48.880;-0.862;2023-03-24T00:18:53;98964.63;;;19.03;50.21
72359;BME280;60317;48.880;-0.862;2023-03-24T00:21:21;98952.41;;;19.01;50.53
72359;BME280;60317;48.880;-0.862;2023-03-24T00:23:47;98947.88;;;19.01;50.31
72359;BME280;60317;48.880;-0.862;2023-03-24T00:26:15;98959.75;;;18.99;50.37
72359;BME280;60317;48.880;-0.862;2023-03-24T00:28:47;98957.25;;;18.97;50.20
72359;BME280;60317;48.880;-0.862;2023-03-24T00:31:16;98957.06;;;18.99;50.30
72359;BME280;60317;48.880;-0.862;2023-03-24T00:33:45;98953.72;;;18.97;50.17
72359;BME280;60317;48.880;-0.862;2023-03-24T00:36:12;98959.59;;;19.00;50.26
72359;BME280;60317;48.880;-0.862;2023-03-24T00:38:40;98969.94;;;18.95;50.34
72359;BME280;60317;48.880;-0.862;2023-03-24T00:41:07;98968.97;;;18.96;50.35
72359;BME280;60317;48.880;-0.862;2023-03-24T00:43:34;98979.50;;;18.98;50.15
72359;BME280;60317;48.880;-0.862;2023-03-24T00:46:03;98973.81;;;19.01;50.23
72359;BME280;60317;48.880;-0.862;2023-03-24T00:48:30;98974.44;;;18.95;50.28
72359;BME280;60317;48.880;-0.862;2023-03-24T00:51:00;98986.00;;;18.95;50.17
72359;BME280;60317;48.880;-0.862;2023-03-24T00:53:27;98979.97;;;18.93;50.30
72359;BME280;60317;48.880;-0.862;2023-03-24T00:55:54;98981.97;;;18.91;50.39
72359;BME280;60317;48.880;-0.862;2023-03-24T00:58:21;98994.38;;;18.92;50.25
72359;BME280;60317;48.880;-0.862;2023-03-24T01:00:49;98995.22;;;18.93;50.43
72359;BME280;60317;48.880;-0.862;2023-03-24T01:03:17;99011.09;;;18.94;50.10
72359;BME280;60317;48.880;-0.862;2023-03-24T01:05:44;99002.22;;;18.94;50.02
72359;BME280;60317;48.880;-0.862;2023-03-24T01:08:11;98998.03;;;18.91;50.06
72359;BME280;60317;48.880;-0.862;2023-03-24T01:10:38;99009.56;;;18.92;50.17
72359;BME280;60317;48.880;-0.862;2023-03-24T01:13:05;98997.06;;;18.92;50.15
72359;BME280;60317;48.880;-0.862;2023-03-24T01:15:33;98995.34;;;18.91;50.01
72359;BME280;60317;48.880;-0.862;2023-03-24T01:17:59;98999.88;;;18.91;50.24
72359;BME280;60317;48.880;-0.862;2023-03-24T01:20:27;98998.34;;;18.88;50.45
72359;BME280;60317;48.880;-0.862;2023-03-24T01:22:54;98996.53;;;18.89;50.13
72359;BME280;60317;48.880;-0.862;2023-03-24T01:25:22;99008.22;;;18.88;50.24
72359;BME280;60317;48.880;-0.862;2023-03-24T01:27:50;99014.41;;;18.88;50.19
72359;BME280;60317;48.880;-0.862;2023-03-24T01:30:19;99013.13;;;18.92;50.01
72359;BME280;60317;48.880;-0.862;2023-03-24T01:32:46;99004.69;;;18.87;50.13
72359;BME280;60317;48.880;-0.862;2023-03-24T01:35:13;99013.44;;;18.89;49.97
72359;BME280;60317;48.880;-0.862;2023-03-24T01:37:39;99015.28;;;18.89;50.18
72359;BME280;60317;48.880;-0.862;2023-03-24T01:40:07;99016.25;;;18.88;50.07
72359;BME280;60317;48.880;-0.862;2023-03-24T01:42:37;99027.78;;;18.88;49.93
72359;BME280;60317;48.880;-0.862;2023-03-24T01:47:55;99032.31;;;18.88;49.90
72359;BME280;60317;48.880;-0.862;2023-03-24T01:50:22;99035.81;;;18.88;49.89
72359;BME280;60317;48.880;-0.862;2023-03-24T01:52:49;99037.34;;;18.91;49.85
72359;BME280;60317;48.880;-0.862;2023-03-24T01:55:17;99041.16;;;18.88;49.90
72359;BME280;60317;48.880;-0.862;2023-03-24T01:57:48;99030.47;;;18.88;49.89
72359;BME280;60317;48.880;-0.862;2023-03-24T02:00:18;99042.50;;;18.84;50.00
72359;BME280;60317;48.880;-0.862;2023-03-24T02:02:48;99043.31;;;18.84;50.06
72359;BME280;60317;48.880;-0.862;2023-03-24T02:05:16;99038.84;;;18.85;49.94
72359;BME280;60317;48.880;-0.862;2023-03-24T02:07:47;99039.81;;;18.84;49.97
72359;BME280;60317;48.880;-0.862;2023-03-24T02:10:17;99042.50;;;18.84;49.82
72359;BME280;60317;48.880;-0.862;2023-03-24T02:12:46;99039.81;;;18.84;49.93
72359;BME280;60317;48.880;-0.862;2023-03-24T02:15:15;99041.81;;;18.82;50.01
72359;BME280;60317;48.880;-0.862;2023-03-24T02:17:53;99037.63;;;18.79;50.17
72359;BME280;60317;48.880;-0.862;2023-03-24T02:20:45;99046.47;;;18.80;49.82
72359;BME280;60317;48.880;-0.862;2023-03-24T02:23:30;99047.19;;;18.82;49.89
72359;BME280;60317;48.880;-0.862;2023-03-24T02:26:19;99052.66;;;18.80;49.95
72359;BME280;60317;48.880;-0.862;2023-03-24T02:28:59;99044.66;;;18.80;49.95
72359;BME280;60317;48.880;-0.862;2023-03-24T02:31:47;99048.16;;;18.81;49.89
72359;BME280;60317;48.880;-0.862;2023-03-24T02:34:41;99051.53;;;18.83;49.96
72359;BME280;60317;48.880;-0.862;2023-03-24T02:37:28;99046.19;;;18.83;49.87
72359;BME280;60317;48.880;-0.862;2023-03-24T02:40:09;99048.16;;;18.81;50.05
72359;BME280;60317;48.880;-0.862;2023-03-24T02:42:46;99042.97;;;18.79;50.02
72359;BME280;60317;48.880;-0.862;2023-03-24T02:45:24;99050.16;;;18.79;50.16
72359;BME280;60317;48.880;-0.862;2023-03-24T02:48:08;99056.34;;;18.79;49.92
72359;BME280;60317;48.880;-0.862;2023-03-24T02:50:46;99066.53;;;18.76;49.89
72359;BME280;60317;48.880;-0.862;2023-03-24T02:53:17;99050.00;;;18.80;49.99
72359;BME280;60317;48.880;-0.862;2023-03-24T02:55:51;99060.88;;;18.79;50.02
72359;BME280;60317;48.880;-0.862;2023-03-24T02:58:24;99057.19;;;18.80;49.92
72359;BME280;60317;48.880;-0.862;2023-03-24T03:00:56;99059.03;;;18.79;49.97
72359;BME280;60317;48.880;-0.862;2023-03-24T03:03:29;99055.66;;;18.77;50.07
72359;BME280;60317;48.880;-0.862;2023-03-24T03:06:00;99054.69;;;18.78;49.97
72359;BME280;60317;48.880;-0.862;2023-03-24T03:08:30;99051.16;;;18.78;50.16
72359;BME280;60317;48.880;-0.862;2023-03-24T03:11:01;99062.00;;;18.76;50.04
72359;BME280;60317;48.880;-0.862;2023-03-24T03:13:31;99061.72;;;18.79;49.83
72359;BME280;60317;48.880;-0.862;2023-03-24T03:16:04;99059.03;;;18.79;49.93
72359;BME280;60317;48.880;-0.862;2023-03-24T03:18:38;99057.06;;;18.81;49.78
72359;BME280;60317;48.880;-0.862;2023-03-24T03:21:09;99051.16;;;18.78;50.17
72359;BME280;60317;48.880;-0.862;2023-03-24T03:23:41;99053.84;;;18.78;49.69
72359;BME280;60317;48.880;-0.862;2023-03-24T03:26:13;99057.50;;;18.77;49.78
72359;BME280;60317;48.880;-0.862;2023-03-24T03:28:43;99055.81;;;18.76;49.78
72359;BME280;60317;48.880;-0.862;2023-03-24T03:31:15;99060.34;;;18.75;49.98
72359;BME280;60317;48.880;-0.862;2023-03-24T03:33:47;99059.34;;;18.76;49.97
72359;BME280;60317;48.880;-0.862;2023-03-24T03:36:21;99047.63;;;18.77;49.86
72359;BME280;60317;48.880;-0.862;2023-03-24T03:38:53;99063.69;;;18.77;49.76
72359;BME280;60317;48.880;-0.862;2023-03-24T03:41:24;99065.69;;;18.75;49.92
72359;BME280;60317;48.880;-0.862;2023-03-24T03:43:51;99064.88;;;18.75;50.04
72359;BME280;60317;48.880;-0.862;2023-03-24T03:46:18;99058.19;;;18.79;49.71
72359;BME280;60317;48.880;-0.862;2023-03-24T03:48:45;99062.75;;;18.87;49.59
72359;BME280;60317;48.880;-0.862;2023-03-24T03:51:12;99066.00;;;18.98;49.35
72359;BME280;60317;48.880;-0.862;2023-03-24T03:53:45;99066.06;;;19.06;49.10
72359;BME280;60317;48.880;-0.862;2023-03-24T03:56:13;99070.78;;;19.13;49.13
72359;BME280;60317;48.880;-0.862;2023-03-24T03:58:41;99072.16;;;19.17;48.80
72359;BME280;60317;48.880;-0.862;2023-03-24T04:01:10;99068.53;;;19.26;48.61
72359;BME280;60317;48.880;-0.862;2023-03-24T04:03:54;99073.88;;;19.26;48.84
72359;BME280;60317;48.880;-0.862;2023-03-24T04:06:31;99079.94;;;19.28;48.50
72359;BME280;60317;48.880;-0.862;2023-03-24T04:09:07;99079.63;;;19.31;48.62
72359;BME280;60317;48.880;-0.862;2023-03-24T04:11:45;99076.63;;;19.34;48.73
72359;BME280;60317;48.880;-0.862;2023-03-24T04:14:29;99075.59;;;19.35;48.70
72359;BME280;60317;48.880;-0.862;2023-03-24T04:17:05;99089.53;;;19.39;48.51
72359;BME280;60317;48.880;-0.862;2023-03-24T04:19:45;99090.03;;;19.42;48.47
72359;BME280;60317;48.880;-0.862;2023-03-24T04:22:24;99092.03;;;19.40;48.47
72359;BME280;60317;48.880;-0.862;2023-03-24T04:24:55;99088.91;;;19.45;48.24
72359;BME280;60317;48.880;-0.862;2023-03-24T04:27:28;99095.94;;;19.46;48.18
72359;BME280;60317;48.880;-0.862;2023-03-24T04:30:06;99080.03;;;19.52;48.14
72359;BME280;60317;48.880;-0.862;2023-03-24T04:32:44;99085.72;;;19.49;48.25
72359;BME280;60317;48.880;-0.862;2023-03-24T04:35:17;99080.03;;;19.52;48.16
72359;BME280;60317;48.880;-0.862;2023-03-24T04:37:46;99088.91;;;19.53;48.05
72359;BME280;60317;48.880;-0.862;2023-03-24T04:40:15;99096.47;;;19.58;48.04
72359;BME280;60317;48.880;-0.862;2023-03-24T04:42:45;99090.78;;;19.61;47.92
72359;BME280;60317;48.880;-0.862;2023-03-24T04:45:15;99087.44;;;19.59;47.93
72359;BME280;60317;48.880;-0.862;2023-03-24T04:47:45;99091.81;;;19.60;48.04
72359;BME280;60317;48.880;-0.862;2023-03-24T04:50:13;99093.19;;;19.64;47.75
72359;BME280;60317;48.880;-0.862;2023-03-24T04:52:52;99103.91;;;19.64;47.82
72359;BME280;60317;48.880;-0.862;2023-03-24T04:55:30;99101.91;;;19.66;47.72
72359;BME280;60317;48.880;-0.862;2023-03-24T04:57:58;99099.38;;;19.64;47.75
72359;BME280;60317;48.880;-0.862;2023-03-24T05:00:26;99105.13;;;19.69;47.75
72359;BME280;60317;48.880;-0.862;2023-03-24T05:02:53;99109.47;;;19.70;47.71
72359;BME280;60317;48.880;-0.862;2023-03-24T05:05:19;99103.28;;;19.70;47.74
72359;BME280;60317;48.880;-0.862;2023-03-24T05:07:46;99104.94;;;19.71;47.63
72359;BME280;60317;48.880;-0.862;2023-03-24T05:10:12;99108.31;;;19.73;47.65
72359;BME280;60317;48.880;-0.862;2023-03-24T05:12:39;99108.66;;;19.78;47.49
72359;BME280;60317;48.880;-0.862;2023-03-24T05:15:06;99119.69;;;19.75;47.56
72359;BME280;60317;48.880;-0.862;2023-03-24T05:17:34;99118.03;;;19.74;47.46
72359;BME280;60317;48.880;-0.862;2023-03-24T05:20:00;99112.50;;;19.75;47.74
72359;BME280;60317;48.880;-0.862;2023-03-24T05:22:27;99107.66;;;19.79;47.42
72359;BME280;60317;48.880;-0.862;2023-03-24T05:24:53;99111.03;;;19.81;47.51
72359;BME280;60317;48.880;-0.862;2023-03-24T05:27:20;99107.50;;;19.81;47.46
72359;BME280;60317;48.880;-0.862;2023-03-24T05:29:46;99113.69;;;19.81;47.52
72359;BME280;60317;48.880;-0.862;2023-03-24T05:32:13;99120.72;;;19.82;47.46
72359;BME280;60317;48.880;-0.862;2023-03-24T05:34:40;99117.06;;;19.83;47.43
72359;BME280;60317;48.880;-0.862;2023-03-24T05:37:07;99128.13;;;19.88;47.30
72359;BME280;60317;48.880;-0.862;2023-03-24T05:39:33;99123.78;;;19.87;47.35
72359;BME280;60317;48.880;-0.862;2023-03-24T05:42:00;99122.78;;;19.88;47.14
72359;BME280;60317;48.880;-0.862;2023-03-24T05:44:27;99121.25;;;19.86;47.29
72359;BME280;60317;48.880;-0.862;2023-03-24T05:46:53;99128.47;;;19.93;46.97
72359;BME280;60317;48.880;-0.862;2023-03-24T05:49:20;99127.50;;;19.94;47.01
72359;BME280;60317;48.880;-0.862;2023-03-24T05:51:47;99121.13;;;19.95;47.01
72359;BME280;60317;48.880;-0.862;2023-03-24T05:54:14;99141.56;;;19.96;46.95
72359;BME280;60317;48.880;-0.862;2023-03-24T05:56:40;99129.50;;;19.92;47.14
72359;BME280;60317;48.880;-0.862;2023-03-24T05:59:07;99137.38;;;19.94;47.22
72359;BME280;60317;48.880;-0.862;2023-03-24T06:01:33;99138.72;;;19.98;46.97
72359;BME280;60317;48.880;-0.862;2023-03-24T06:04:00;99142.41;;;19.97;47.06
72359;BME280;60317;48.880;-0.862;2023-03-24T06:06:27;99149.16;;;20.01;46.80
72359;BME280;60317;48.880;-0.862;2023-03-24T06:08:55;99149.16;;;20.01;47.06
72359;BME280;60317;48.880;-0.862;2023-03-24T06:11:21;99147.75;;;19.97;46.94
72359;BME280;60317;48.880;-0.862;2023-03-24T06:13:48;99164.38;;;20.00;46.92
72359;BME280;60317;48.880;-0.862;2023-03-24T06:16:14;99155.34;;;20.01;46.85
72359;BME280;60317;48.880;-0.862;2023-03-24T06:18:41;99168.75;;;20.01;46.90
72359;BME280;60317;48.880;-0.862;2023-03-24T06:21:07;99160.38;;;20.05;46.82
72359;BME280;60317;48.880;-0.862;2023-03-24T06:23:34;99170.75;;;19.99;47.02
72359;BME280;60317;48.880;-0.862;2023-03-24T06:26:07;99170.09;;;19.97;47.31
72359;BME280;60317;48.880;-0.862;2023-03-24T06:28:34;99169.66;;;19.58;48.25
72359;BME280;60317;48.880;-0.862;2023-03-24T06:31:03;99183.19;;;19.74;47.87
72359;BME280;60317;48.880;-0.862;2023-03-24T06:33:31;99185.78;;;19.92;47.29
72359;BME280;60317;48.880;-0.862;2023-03-24T06:35:57;99187.00;;;19.98;47.28
72359;BME280;60317;48.880;-0.862;2023-03-24T06:38:24;99185.50;;;20.03;47.04
72359;BME280;60317;48.880;-0.862;2023-03-24T06:40:50;99184.34;;;20.06;47.01
72359;BME280;60317;48.880;-0.862;2023-03-24T06:43:19;99186.50;;;20.02;47.08
72359;BME280;60317;48.880;-0.862;2023-03-24T06:45:45;99180.47;;;20.00;47.24
72359;BME280;60317;48.880;-0.862;2023-03-24T06:48:12;99178.16;;;20.06;47.04
72359;BME280;60317;48.880;-0.862;2023-03-24T06:50:39;99181.84;;;20.05;46.97
72359;BME280;60317;48.880;-0.862;2023-03-24T06:53:06;99183.50;;;20.06;46.95
72359;BME280;60317;48.880;-0.862;2023-03-24T06:55:33;99202.44;;;20.04;46.81
72359;BME280;60317;48.880;-0.862;2023-03-24T06:58:00;99204.66;;;20.09;46.91
72359;BME280;60317;48.880;-0.862;2023-03-24T07:00:27;99201.16;;;20.16;46.77
72359;BME280;60317;48.880;-0.862;2023-03-24T07:02:54;99201.34;;;20.23;46.60
72359;BME280;60317;48.880;-0.862;2023-03-24T07:05:21;99190.44;;;20.16;46.97
72359;BME280;60317;48.880;-0.862;2023-03-24T07:07:48;99206.44;;;20.00;47.32
72359;BME280;60317;48.880;-0.862;2023-03-24T07:10:17;99201.59;;;20.03;47.55
72359;BME280;60317;48.880;-0.862;2023-03-24T07:12:44;99203.84;;;20.24;47.22
72359;BME280;60317;48.880;-0.862;2023-03-24T07:15:10;99210.78;;;20.35;47.25
72359;BME280;60317;48.880;-0.862;2023-03-24T07:17:39;99211.97;;;20.41;47.23
72359;BME280;60317;48.880;-0.862;2023-03-24T07:20:07;99213.34;;;20.11;47.51
72359;BME280;60317;48.880;-0.862;2023-03-24T07:22:34;99216.38;;;19.73;48.50
72359;BME280;60317;48.880;-0.862;2023-03-24T07:25:01;99213.38;;;19.76;48.50
72359;BME280;60317;48.880;-0.862;2023-03-24T07:27:27;99215.53;;;20.07;48.28
72359;BME280;60317;48.880;-0.862;2023-03-24T07:29:54;99222.09;;;20.13;48.21
72359;BME280;60317;48.880;-0.862;2023-03-24T07:32:21;99211.16;;;20.06;48.30
72359;BME280;60317;48.880;-0.862;2023-03-24T07:34:49;99228.38;;;20.30;47.87
72359;BME280;60317;48.880;-0.862;2023-03-24T07:37:15;99220.53;;;20.36;47.76
72359;BME280;60317;48.880;-0.862;2023-03-24T07:39:42;99221.53;;;20.43;47.58
72359;BME280;60317;48.880;-0.862;2023-03-24T07:42:08;99235.53;;;20.55;47.45
72359;BME280;60317;48.880;-0.862;2023-03-24T07:44:38;99242.34;;;20.49;47.49
72359;BME280;60317;48.880;-0.862;2023-03-24T07:47:05;99237.69;;;20.52;47.62
72359;BME280;60317;48.880;-0.862;2023-03-24T07:49:31;99241.81;;;20.38;47.95
72359;BME280;60317;48.880;-0.862;2023-03-24T07:51:59;99242.53;;;20.48;47.75
72359;BME280;60317;48.880;-0.862;2023-03-24T07:54:26;99250.47;;;20.58;47.41
72359;BME280;60317;48.880;-0.862;2023-03-24T07:56:52;99250.69;;;20.30;47.92
72359;BME280;60317;48.880;-0.862;2023-03-24T07:59:19;99248.25;;;19.76;48.50
72359;BME280;60317;48.880;-0.862;2023-03-24T08:01:45;99249.22;;;19.58;48.47
72359;BME280;60317;48.880;-0.862;2023-03-24T08:04:14;99251.16;;;19.91;48.32
72359;BME280;60317;48.880;-0.862;2023-03-24T08:06:41;99263.81;;;20.07;47.87
72359;BME280;60317;48.880;-0.862;2023-03-24T08:09:09;99261.16;;;19.81;48.28
72359;BME280;60317;48.880;-0.862;2023-03-24T08:11:36;99277.03;;;19.57;48.63
72359;BME280;60317;48.880;-0.862;2023-03-24T08:14:03;99274.97;;;19.50;48.72
72359;BME280;60317;48.880;-0.862;2023-03-24T08:16:32;99280.41;;;19.41;48.88
72359;BME280;60317;48.880;-0.862;2023-03-24T08:19:00;99273.34;;;19.75;48.89
72359;BME280;60317;48.880;-0.862;2023-03-24T08:21:27;99284.94;;;20.36;47.09
72359;BME280;60317;48.880;-0.862;2023-03-24T08:23:53;99276.63;;;20.56;46.63
72359;BME280;60317;48.880;-0.862;2023-03-24T08:26:21;99287.94;;;20.41;47.00
72359;BME280;60317;48.880;-0.862;2023-03-24T08:28:48;99285.78;;;20.11;47.94
72359;BME280;60317;48.880;-0.862;2023-03-24T08:31:14;99289.59;;;19.74;48.92
72359;BME280;60317;48.880;-0.862;2023-03-24T08:33:41;99293.06;;;19.66;49.13
72359;BME280;60317;48.880;-0.862;2023-03-24T08:36:07;99295.78;;;20.00;48.34
72359;BME280;60317;48.880;-0.862;2023-03-24T08:38:34;99292.69;;;20.13;47.93
72359;BME280;60317;48.880;-0.862;2023-03-24T08:41:02;99291.88;;;20.21;47.75
72359;BME280;60317;48.880;-0.862;2023-03-24T08:43:30;99295.56;;;20.20;47.81
72359;BME280;60317;48.880;-0.862;2023-03-24T08:45:57;99294.56;;;20.21;47.85
72359;BME280;60317;48.880;-0.862;2023-03-24T08:48:24;99305.59;;;20.18;47.83
72359;BME280;60317;48.880;-0.862;2023-03-24T08:50:51;99300.63;;;20.23;47.66
72359;BME280;60317;48.880;-0.862;2023-03-24T08:53:17;99306.81;;;20.23;47.77
72359;BME280;60317;48.880;-0.862;2023-03-24T08:55:44;99308.66;;;20.23;47.69
72359;BME280;60317;48.880;-0.862;2023-03-24T08:58:13;99304.78;;;20.17;47.75
72359;BME280;60317;48.880;-0.862;2023-03-24T09:00:42;99309.81;;;19.68;49.05
72359;BME280;60317;48.880;-0.862;2023-03-24T09:03:11;99297.78;;;19.54;49.27
72359;BME280;60317;48.880;-0.862;2023-03-24T09:05:38;99304.69;;;19.75;48.82
72359;BME280;60317;48.880;-0.862;2023-03-24T09:08:10;99309.41;;;19.81;48.52
72359;BME280;60317;48.880;-0.862;2023-03-24T09:10:37;99315.84;;;19.88;48.44
72359;BME280;60317;48.880;-0.862;2023-03-24T09:13:04;99306.47;;;19.92;48.29
72359;BME280;60317;48.880;-0.862;2023-03-24T09:15:31;99315.84;;;19.88;48.38
72359;BME280;60317;48.880;-0.862;2023-03-24T09:17:59;99313.19;;;19.96;48.35
72359;BME280;60317;48.880;-0.862;2023-03-24T09:20:25;99317.44;;;20.07;48.56
72359;BME280;60317;48.880;-0.862;2023-03-24T09:22:52;99318.78;;;20.03;48.88
72359;BME280;60317;48.880;-0.862;2023-03-24T09:25:20;99314.72;;;20.59;47.51
72359;BME280;60317;48.880;-0.862;2023-03-24T09:27:47;99318.31;;;20.76;46.66
72359;BME280;60317;48.880;-0.862;2023-03-24T09:30:16;99325.94;;;20.55;47.18
72359;BME280;60317;48.880;-0.862;2023-03-24T09:32:43;99331.06;;;20.40;47.92
72359;BME280;60317;48.880;-0.862;2023-03-24T09:35:12;99322.44;;;20.54;47.14
72359;BME280;60317;48.880;-0.862;2023-03-24T09:37:39;99331.22;;;20.72;46.64
72359;BME280;60317;48.880;-0.862;2023-03-24T09:40:06;99327.91;;;20.87;46.26
72359;BME280;60317;48.880;-0.862;2023-03-24T09:42:36;99334.16;;;20.95;45.95
72359;BME280;60317;48.880;-0.862;2023-03-24T09:45:11;99339.88;;;21.01;46.12
72359;BME280;60317;48.880;-0.862;2023-03-24T09:47:40;99333.34;;;21.11;45.58
72359;BME280;60317;48.880;-0.862;2023-03-24T09:50:18;99334.22;;;20.35;47.65
72359;BME280;60317;48.880;-0.862;2023-03-24T09:52:52;99344.75;;;19.76;49.06
72359;BME280;60317;48.880;-0.862;2023-03-24T09:55:23;99350.41;;;19.55;49.64
72359;BME280;60317;48.880;-0.862;2023-03-24T09:57:50;99342.47;;;19.64;49.31
72359;BME280;60317;48.880;-0.862;2023-03-24T10:00:20;99345.88;;;19.56;49.70
72359;BME280;60317;48.880;-0.862;2023-03-24T10:02:49;99346.97;;;19.45;50.18
72359;BME280;60317;48.880;-0.862;2023-03-24T10:05:24;99351.50;;;19.45;50.40
72359;BME280;60317;48.880;-0.862;2023-03-24T10:07:53;99363.34;;;19.42;50.45
72359;BME280;60317;48.880;-0.862;2023-03-24T10:10:28;99373.91;;;19.44;50.49
72359;BME280;60317;48.880;-0.862;2023-03-24T10:13:05;99361.34;;;19.44;50.45
72359;BME280;60317;48.880;-0.862;2023-03-24T10:15:37;99361.81;;;19.40;50.62
72359;BME280;60317;48.880;-0.862;2023-03-24T10:18:19;99359.84;;;19.42;50.59
72359;BME280;60317;48.880;-0.862;2023-03-24T10:20:53;99360.44;;;19.36;50.68
72359;BME280;60317;48.880;-0.862;2023-03-24T10:23:26;99349.88;;;19.34;50.68
72359;BME280;60317;48.880;-0.862;2023-03-24T10:26:04;99359.59;;;19.35;50.81
72359;BME280;60317;48.880;-0.862;2023-03-24T10:28:39;99357.63;;;19.55;50.55
72359;BME280;60317;48.880;-0.862;2023-03-24T10:31:10;99363.66;;;19.75;51.10
72359;BME280;60317;48.880;-0.862;2023-03-24T10:33:41;99363.50;;;19.59;51.86
72359;BME280;60317;48.880;-0.862;2023-03-24T10:36:12;99358.00;;;20.04;50.50
72359;BME280;60317;48.880;-0.862;2023-03-24T10:38:39;99356.00;;;19.80;52.46
72359;BME280;60317;48.880;-0.862;2023-03-24T10:41:06;99350.25;;;19.75;52.20
72359;BME280;60317;48.880;-0.862;2023-03-24T10:43:32;99356.91;;;20.49;49.62
72359;BME280;60317;48.880;-0.862;2023-03-24T10:46:00;99354.59;;;20.88;48.31
72359;BME280;60317;48.880;-0.862;2023-03-24T10:48:42;99366.41;;;20.95;47.94
72359;BME280;60317;48.880;-0.862;2023-03-24T10:51:15;99370.78;;;20.62;48.63
72359;BME280;60317;48.880;-0.862;2023-03-24T10:53:42;99360.78;;;20.46;48.75
72359;BME280;60317;48.880;-0.862;2023-03-24T10:56:15;99367.34;;;20.78;47.73
72359;BME280;60317;48.880;-0.862;2023-03-24T10:58:43;99356.81;;;21.01;47.04
72359;BME280;60317;48.880;-0.862;2023-03-24T11:01:21;99359.19;;;21.04;46.75
72359;BME280;60317;48.880;-0.862;2023-03-24T11:03:49;99349.63;;;21.10;46.78
72359;BME280;60317;48.880;-0.862;2023-03-24T11:06:19;99351.31;;;21.11;46.56
72359;BME280;60317;48.880;-0.862;2023-03-24T11:08:46;99355.53;;;21.13;46.36
72359;BME280;60317;48.880;-0.862;2023-03-24T11:11:28;99350.81;;;21.15;46.54
72359;BME280;60317;48.880;-0.862;2023-03-24T11:13:56;99348.97;;;21.16;46.48
72359;BME280;60317;48.880;-0.862;2023-03-24T11:16:27;99344.59;;;21.07;46.52
72359;BME280;60317;48.880;-0.862;2023-03-24T11:18:56;99345.97;;;20.68;47.35
72359;BME280;60317;48.880;-0.862;2023-03-24T11:21:25;99340.81;;;20.75;47.06
72359;BME280;60317;48.880;-0.862;2023-03-24T11:23:52;99333.16;;;20.96;46.71
72359;BME280;60317;48.880;-0.862;2023-03-24T11:26:20;99333.84;;;21.07;46.32
72359;BME280;60317;48.880;-0.862;2023-03-24T11:28:50;99331.81;;;21.09;46.31
72359;BME280;60317;48.880;-0.862;2023-03-24T11:31:21;99328.47;;;21.15;46.08
72359;BME280;60317;48.880;-0.862;2023-03-24T11:33:54;99328.47;;;21.15;46.15
72359;BME280;60317;48.880;-0.862;2023-03-24T11:36:36;99331.53;;;21.20;46.15
72359;BME280;60317;48.880;-0.862;2023-03-24T11:39:10;99337.56;;;21.22;45.98
72359;BME280;60317;48.880;-0.862;2023-03-24T11:41:40;99339.91;;;21.25;45.76
72359;BME280;60317;48.880;-0.862;2023-03-24T11:44:16;99326.13;;;21.04;46.37
72359;BME280;60317;48.880;-0.862;2023-03-24T11:46:44;99317.78;;;20.64;47.27
72359;BME280;60317;48.880;-0.862;2023-03-24T11:49:15;99326.16;;;20.61;47.39
72359;BME280;60317;48.880;-0.862;2023-03-24T11:51:46;99325.41;;;20.93;46.46
72359;BME280;60317;48.880;-0.862;2023-03-24T11:54:16;99321.91;;;21.09;45.85
72359;BME280;60317;48.880;-0.862;2023-03-24T11:56:45;99308.50;;;21.17;45.68
72359;BME280;60317;48.880;-0.862;2023-03-24T11:59:26;99325.75;;;20.90;46.42
72359;BME280;60317;48.880;-0.862;2023-03-24T12:01:58;99306.25;;;20.46;47.72
72359;BME280;60317;48.880;-0.862;2023-03-24T12:04:31;99302.31;;;20.32;48.52
72359;BME280;60317;48.880;-0.862;2023-03-24T12:09:52;99293.13;;;20.35;48.65
72359;BME280;60317;48.880;-0.862;2023-03-24T12:12:29;99288.09;;;20.74;47.76
72359;BME280;60317;48.880;-0.862;2023-03-24T12:15:16;99311.16;;;20.93;46.97
72359;BME280;60317;48.880;-0.862;2023-03-24T12:18:05;99316.31;;;20.44;48.26
72359;BME280;60317;48.880;-0.862;2023-03-24T12:20:39;99305.50;;;20.62;47.66
72359;BME280;60317;48.880;-0.862;2023-03-24T12:23:13;99346.31;;;20.39;48.12
72359;BME280;60317;48.880;-0.862;2023-03-24T12:25:55;99343.97;;;20.10;48.39
72359;BME280;60317;48.880;-0.862;2023-03-24T12:28:37;99357.06;;;20.13;48.38
72359;BME280;60317;48.880;-0.862;2023-03-24T12:31:20;99373.06;;;20.23;47.93
72359;BME280;60317;48.880;-0.862;2023-03-24T12:33:58;99369.72;;;20.03;48.13
72359;BME280;60317;48.880;-0.862;2023-03-24T12:36:40;99374.97;;;20.05;48.03
72359;BME280;60317;48.880;-0.862;2023-03-24T12:39:14;99371.75;;;20.01;47.87
72359;BME280;60317;48.880;-0.862;2023-03-24T12:41:53;99378.22;;;19.90;47.83
72359;BME280;60317;48.880;-0.862;2023-03-24T12:44:36;99364.25;;;19.69;48.39
72359;BME280;60317;48.880;-0.862;2023-03-24T12:47:20;99363.00;;;19.73;48.20
72359;BME280;60317;48.880;-0.862;2023-03-24T12:50:03;99363.44;;;19.68;48.44
72359;BME280;60317;48.880;-0.862;2023-03-24T12:52:52;99357.75;;;19.71;48.32
72359;BME280;60317;48.880;-0.862;2023-03-24T12:55:40;99362.59;;;19.68;48.70
72359;BME280;60317;48.880;-0.862;2023-03-24T12:58:13;99347.44;;;19.59;49.32
72359;BME280;60317;48.880;-0.862;2023-03-24T13:00:48;99340.34;;;19.58;49.81
72359;BME280;60317;48.880;-0.862;2023-03-24T13:03:22;99350.41;;;19.55;49.81
72359;BME280;60317;48.880;-0.862;2023-03-24T13:05:54;99337.97;;;19.54;49.88
72359;BME280;60317;48.880;-0.862;2023-03-24T13:08:34;99315.88;;;19.52;50.04
72359;BME280;60317;48.880;-0.862;2023-03-24T13:11:06;99320.72;;;19.67;49.82
72359;BME280;60317;48.880;-0.862;2023-03-24T13:13:41;99316.09;;;20.03;49.69